Time;durP1;ratioP1;P1;durP2;ratioP2;P2;SDS_P1;SDS_P2;PMS_P1;PMS_P2;Temp;Humidity;BMP_temperature;BMP_pressure;BME280_temperature;BME280_humidity;BME280_pressure;Samples;Min_cycle;Max_cycle;Signal;HPM_P1;HPM_P2
2021/03/31 00:01:46;;;;;;;;;;;26.50;89.20;;;;;;5084793;28;20073;-42
2021/03/31 00:04:14;;;;;;;;;;;26.50;89.20;;;;;;5066623;28;19945;-44
2021/03/31 00:06:42;;;;;;;;;;;26.50;89.10;;;;;;5049810;28;19912;-45
2021/03/31 00:09:08;;;;;;;;;;;26.50;89.10;;;;;;5084690;28;19912;-45
2021/03/31 00:11:34;;;;;;;;;;;26.50;89.00;;;;;;5066831;28;19916;-40
2021/03/31 00:14:02;;;;;;;;;;;26.50;89.30;;;;;;5084715;28;20224;-41
2021/03/31 00:16:28;;;;;;;;;;;26.50;89.20;;;;;;5066558;28;20164;-46
2021/03/31 00:18:55;;;;;;;;;;;26.50;89.00;;;;;;5049897;28;19908;-44
2021/03/31 00:21:21;;;;;;;;;;;26.50;88.90;;;;;;5066647;28;19943;-43
2021/03/31 00:23:58;;;;;;;;;;;26.50;88.70;;;;;;5084636;28;19905;-45
2021/03/31 00:26:31;;;;;;;;;;;26.50;88.60;;;;;;5084292;28;19904;-40
2021/03/31 00:28:57;;;;;;;;;;;26.50;88.70;;;;;;5083966;28;19954;-41
2021/03/31 00:31:23;;;;;;;;;;;26.50;88.80;;;;;;5083609;28;19958;-47
2021/03/31 00:33:53;;;;;;;;;;;26.50;88.60;;;;;;5083794;28;19975;-43
2021/03/31 00:36:20;;;;;;;;;;;26.50;87.90;;;;;;5066566;28;19908;-47
2021/03/31 00:38:48;;;;;;;;;;;26.50;88.10;;;;;;5084700;28;19908;-41
2021/03/31 00:41:23;;;;;;;;;;;26.60;88.40;;;;;;5066290;28;19975;-43
2021/03/31 00:43:52;;;;;;;;;;;26.50;87.90;;;;;;5084696;28;19954;-45
2021/03/31 00:46:18;;;;;;;;;;;26.50;87.70;;;;;;5066562;28;19911;-44
2021/03/31 00:48:47;;;;;;;;;;;26.50;88.00;;;;;;5084572;28;19916;-36
2021/03/31 00:51:15;;;;;;;;;;;26.50;88.10;;;;;;5084212;28;19900;-38
2021/03/31 00:53:47;;;;;;;;;;;26.50;88.20;;;;;;5083701;28;19908;-37
2021/03/31 00:56:15;;;;;;;;;;;26.50;88.30;;;;;;5081498;28;19908;-39
2021/03/31 00:58:41;;;;;;;;;;;26.50;87.60;;;;;;5066456;28;19908;-41
2021/03/31 01:01:09;;;;;;;;;;;26.50;87.40;;;;;;5083912;28;19975;-41
2021/03/31 01:03:42;;;;;;;;;;;26.50;87.00;;;;;;5084443;28;19908;-43
2021/03/31 01:06:11;;;;;;;;;;;26.50;87.20;;;;;;5085149;28;19900;-39
2021/03/31 01:08:39;;;;;;;;;;;26.50;86.80;;;;;;5088352;28;19915;-39
2021/03/31 01:11:07;;;;;;;;;;;26.50;86.50;;;;;;5087907;28;20308;-42
2021/03/31 01:13:45;;;;;;;;;;;26.50;86.20;;;;;;5088029;28;19943;-38
2021/03/31 01:16:20;;;;;;;;;;;26.50;86.10;;;;;;5088091;28;20135;-36
2021/03/31 01:18:52;;;;;;;;;;;26.50;86.30;;;;;;5070350;28;20254;-38
2021/03/31 01:21:38;;;;;;;;;;;26.50;86.40;;;;;;5087445;28;19904;-42
2021/03/31 01:24:07;;;;;;;;;;;26.50;86.50;;;;;;5087858;28;19908;-41
2021/03/31 01:26:44;;;;;;;;;;;26.50;86.50;;;;;;5087671;28;19900;-43
2021/03/31 01:29:13;;;;;;;;;;;26.50;86.30;;;;;;5087591;28;19976;-39
2021/03/31 01:31:40;;;;;;;;;;;26.50;86.60;;;;;;5087649;28;20120;-40
2021/03/31 01:34:24;;;;;;;;;;;26.50;86.50;;;;;;5087655;28;19911;-39
2021/03/31 01:36:54;;;;;;;;;;;26.50;86.30;;;;;;5087427;28;19915;-45
2021/03/31 01:39:20;;;;;;;;;;;26.40;86.20;;;;;;5087254;28;19958;-53
2021/03/31 01:41:47;;;;;;;;;;;26.40;86.00;;;;;;5087465;28;19900;-46
2021/03/31 01:44:15;;;;;;;;;;;26.50;86.20;;;;;;5087406;28;19994;-42
2021/03/31 01:46:44;;;;;;;;;;;26.40;86.00;;;;;;5069429;28;19910;-43
2021/03/31 01:49:12;;;;;;;;;;;26.50;86.10;;;;;;5087318;28;19959;-48
2021/03/31 01:51:41;;;;;;;;;;;26.50;86.40;;;;;;5087003;28;19900;-46
2021/03/31 01:54:08;;;;;;;;;;;26.40;86.20;;;;;;5086640;28;19980;-43
2021/03/31 01:56:35;;;;;;;;;;;26.40;86.40;;;;;;5069740;28;19908;-48
2021/03/31 01:59:01;;;;;;;;;;;26.50;86.40;;;;;;5086641;28;19908;-45
2021/03/31 02:01:28;;;;;;;;;;;26.40;86.50;;;;;;5087180;28;19916;-43
2021/03/31 02:03:59;;;;;;;;;;;26.40;86.40;;;;;;5087079;28;19915;-44
2021/03/31 02:06:41;;;;;;;;;;;26.40;86.80;;;;;;5086928;28;19900;-41
2021/03/31 02:09:08;;;;;;;;;;;26.40;87.00;;;;;;5068756;28;19940;-45
2021/03/31 02:11:37;;;;;;;;;;;26.40;86.80;;;;;;5086368;28;19909;-46
2021/03/31 02:14:06;;;;;;;;;;;26.40;86.80;;;;;;5086456;28;19908;-48
2021/03/31 02:16:34;;;;;;;;;;;26.40;86.80;;;;;;5085769;28;19983;-42
2021/03/31 02:19:07;;;;;;;;;;;26.40;86.70;;;;;;5086552;28;19962;-44
2021/03/31 02:21:33;;;;;;;;;;;26.40;87.00;;;;;;5069459;28;19950;-42
2021/03/31 02:24:02;;;;;;;;;;;26.40;87.30;;;;;;5086663;28;19908;-40
2021/03/31 02:26:28;;;;;;;;;;;26.40;87.20;;;;;;5068491;28;19904;-44
2021/03/31 02:28:57;;;;;;;;;;;26.30;87.10;;;;;;5086091;28;19908;-44
2021/03/31 02:31:25;;;;;;;;;;;26.30;87.30;;;;;;5068653;28;19905;-37
2021/03/31 02:34:05;;;;;;;;;;;26.30;87.20;;;;;;5068675;28;19904;-38
2021/03/31 02:36:32;;;;;;;;;;;26.30;86.90;;;;;;5085859;28;19908;-44
2021/03/31 02:39:01;;;;;;;;;;;26.30;86.90;;;;;;5085373;28;19905;-37
2021/03/31 02:41:31;;;;;;;;;;;26.30;87.00;;;;;;5069349;28;19900;-41
2021/03/31 02:44:00;;;;;;;;;;;26.30;86.70;;;;;;5085395;28;19904;-39
2021/03/31 02:46:33;;;;;;;;;;;26.30;86.60;;;;;;5085925;28;19922;-48
2021/03/31 02:49:00;;;;;;;;;;;26.30;86.70;;;;;;5085598;28;20015;-47
2021/03/31 02:51:30;;;;;;;;;;;26.30;86.30;;;;;;5081991;28;20096;-45
2021/03/31 02:53:59;;;;;;;;;;;26.30;86.40;;;;;;5086119;28;20139;-51
2021/03/31 02:56:41;;;;;;;;;;;26.30;86.10;;;;;;5068244;28;19973;-42
2021/03/31 02:59:07;;;;;;;;;;;26.30;86.30;;;;;;5085719;28;19981;-48
2021/03/31 03:01:33;;;;;;;;;;;26.30;86.30;;;;;;5068209;28;19906;-46
2021/03/31 03:04:00;;;;;;;;;;;26.30;86.00;;;;;;5085999;28;19905;-43
2021/03/31 03:06:29;;;;;;;;;;;26.30;86.00;;;;;;5084556;28;19975;-45
2021/03/31 03:08:58;;;;;;;;;;;26.30;86.20;;;;;;5068047;28;19915;-44
2021/03/31 03:11:26;;;;;;;;;;;26.30;86.40;;;;;;5084999;28;19908;-45
2021/03/31 03:13:53;;;;;;;;;;;26.20;86.40;;;;;;5068219;28;19932;-41
2021/03/31 03:16:20;;;;;;;;;;;26.30;86.80;;;;;;5085593;28;19947;-44
2021/03/31 03:18:49;;;;;;;;;;;26.20;86.60;;;;;;5067271;28;19909;-39
2021/03/31 03:21:19;;;;;;;;;;;26.20;86.80;;;;;;5085253;28;19963;-44
2021/03/31 03:23:47;;;;;;;;;;;26.20;86.90;;;;;;5067367;28;19909;-39
2021/03/31 03:26:15;;;;;;;;;;;26.20;86.80;;;;;;5068046;28;20074;-40
2021/03/31 03:28:43;;;;;;;;;;;26.20;86.80;;;;;;5084719;28;19954;-41
2021/03/31 03:31:11;;;;;;;;;;;26.20;87.00;;;;;;5085508;28;19900;-39
2021/03/31 03:33:37;;;;;;;;;;;26.10;87.20;;;;;;5084362;28;20188;-38
2021/03/31 03:36:06;;;;;;;;;;;26.10;87.50;;;;;;5085474;28;19991;-37
2021/03/31 03:38:34;;;;;;;;;;;26.10;87.50;;;;;;5067635;28;19951;-37
2021/03/31 03:41:07;;;;;;;;;;;26.10;87.60;;;;;;5085429;28;19971;-41
2021/03/31 03:43:38;;;;;;;;;;;26.10;87.80;;;;;;5085598;28;19908;-38
2021/03/31 03:46:10;;;;;;;;;;;26.00;87.70;;;;;;5085185;28;19979;-38
2021/03/31 03:48:41;;;;;;;;;;;26.00;87.80;;;;;;5083985;28;20169;-38
2021/03/31 03:51:12;;;;;;;;;;;26.00;87.90;;;;;;5067438;28;20000;-42
2021/03/31 03:53:44;;;;;;;;;;;26.00;88.00;;;;;;5084784;28;19915;-38
2021/03/31 03:56:11;;;;;;;;;;;26.00;88.20;;;;;;5066482;28;19953;-42
2021/03/31 03:58:39;;;;;;;;;;;26.00;88.30;;;;;;5085416;28;19908;-51
2021/03/31 04:01:11;;;;;;;;;;;25.90;88.20;;;;;;5084713;28;20234;-39
2021/03/31 04:03:58;;;;;;;;;;;26.00;88.40;;;;;;5034683;28;19953;-40
2021/03/31 04:06:46;;;;;;;;;;;26.00;88.20;;;;;;5082603;28;20002;-45
2021/03/31 04:09:12;;;;;;;;;;;25.90;88.30;;;;;;5006797;28;19909;-34
2021/03/31 04:11:44;;;;;;;;;;;26.00;88.10;;;;;;5005981;28;19913;-43
2021/03/31 04:14:11;;;;;;;;;;;26.00;88.00;;;;;;5023394;28;19909;-50
2021/03/31 04:16:41;;;;;;;;;;;26.00;88.10;;;;;;5022811;28;20260;-47
2021/03/31 04:19:10;;;;;;;;;;;26.00;88.00;;;;;;5022411;28;19916;-38
2021/03/31 04:21:36;;;;;;;;;;;26.00;87.80;;;;;;5021097;28;20078;-40
2021/03/31 04:24:02;;;;;;;;;;;26.00;87.70;;;;;;5021164;28;19909;-44
2021/03/31 04:26:35;;;;;;;;;;;26.00;87.80;;;;;;5021133;28;19914;-38
2021/03/31 04:29:22;;;;;;;;;;;26.00;87.70;;;;;;5001339;28;20220;-41
2021/03/31 04:31:49;;;;;;;;;;;26.00;87.40;;;;;;5001254;28;19914;-39
2021/03/31 04:34:16;;;;;;;;;;;26.00;87.60;;;;;;5001690;28;19909;-43
2021/03/31 04:36:42;;;;;;;;;;;26.00;87.30;;;;;;5003065;28;19972;-52
2021/03/31 04:39:09;;;;;;;;;;;26.00;87.40;;;;;;4990376;28;19944;-49
2021/03/31 04:41:35;;;;;;;;;;;26.00;87.30;;;;;;5041782;28;20159;-45
2021/03/31 04:44:03;;;;;;;;;;;26.00;87.30;;;;;;5042691;28;19912;-41
2021/03/31 04:46:29;;;;;;;;;;;26.00;87.10;;;;;;5042211;28;20129;-50
2021/03/31 04:48:57;;;;;;;;;;;26.00;87.10;;;;;;5042311;28;19996;-40
2021/03/31 04:51:26;;;;;;;;;;;26.00;87.10;;;;;;5042403;28;20133;-45
2021/03/31 04:53:59;;;;;;;;;;;26.00;87.00;;;;;;5042270;28;19916;-41
2021/03/31 04:56:27;;;;;;;;;;;26.00;87.10;;;;;;5042341;28;19959;-39
2021/03/31 04:59:03;;;;;;;;;;;26.00;87.00;;;;;;5042226;28;19909;-38
2021/03/31 05:01:34;;;;;;;;;;;26.00;87.10;;;;;;5042305;28;19905;-40
2021/03/31 05:04:03;;;;;;;;;;;26.00;87.20;;;;;;5025903;28;19909;-43
2021/03/31 05:06:33;;;;;;;;;;;26.00;87.30;;;;;;5060090;28;19971;-38
2021/03/31 05:09:09;;;;;;;;;;;26.00;87.30;;;;;;5082372;28;19908;-39
2021/03/31 05:11:38;;;;;;;;;;;26.00;87.30;;;;;;5065641;28;20110;-48
2021/03/31 05:14:05;;;;;;;;;;;26.00;87.40;;;;;;5083410;28;19908;-39
2021/03/31 05:16:32;;;;;;;;;;;26.00;87.30;;;;;;5083824;28;19950;-43
2021/03/31 05:19:03;;;;;;;;;;;26.00;87.30;;;;;;5066384;28;19908;-38
2021/03/31 05:21:32;;;;;;;;;;;26.00;87.30;;;;;;5048576;28;19908;-38
2021/03/31 05:24:04;;;;;;;;;;;26.00;87.40;;;;;;5066047;28;19904;-46
2021/03/31 05:26:34;;;;;;;;;;;26.00;87.60;;;;;;5083750;28;19923;-43
2021/03/31 05:29:20;;;;;;;;;;;26.00;87.80;;;;;;5083866;28;19967;-40
2021/03/31 05:31:47;;;;;;;;;;;26.00;87.60;;;;;;5083671;28;19908;-40
2021/03/31 05:34:13;;;;;;;;;;;26.00;87.80;;;;;;5082993;28;19904;-42
2021/03/31 05:36:40;;;;;;;;;;;26.00;88.10;;;;;;5049007;28;19908;-37
2021/03/31 05:39:10;;;;;;;;;;;26.00;88.10;;;;;;5082741;28;19909;-39
2021/03/31 05:41:36;;;;;;;;;;;26.00;88.40;;;;;;5083832;28;19901;-41
2021/03/31 05:44:04;;;;;;;;;;;26.00;88.50;;;;;;5065729;28;19971;-42
2021/03/31 05:46:30;;;;;;;;;;;26.00;88.60;;;;;;5065614;28;19901;-41
2021/03/31 05:48:59;;;;;;;;;;;26.00;88.70;;;;;;5083826;28;19912;-43
2021/03/31 05:51:25;;;;;;;;;;;26.00;88.80;;;;;;5066054;28;19905;-39
2021/03/31 05:53:52;;;;;;;;;;;26.00;88.80;;;;;;5087163;28;19904;-39
2021/03/31 05:56:21;;;;;;;;;;;26.00;88.90;;;;;;5086623;28;19907;-44
2021/03/31 05:58:53;;;;;;;;;;;26.00;89.00;;;;;;5087708;28;19954;-39
2021/03/31 06:01:26;;;;;;;;;;;26.00;89.10;;;;;;5087145;28;19919;-42
2021/03/31 06:03:57;;;;;;;;;;;26.00;89.00;;;;;;5087605;28;19905;-42
2021/03/31 06:06:25;;;;;;;;;;;26.00;88.90;;;;;;5083224;28;19911;-42
2021/03/31 06:08:52;;;;;;;;;;;26.00;88.50;;;;;;5087580;28;19935;-41
2021/03/31 06:11:20;;;;;;;;;;;26.00;88.70;;;;;;5086939;28;19916;-50
2021/03/31 06:14:02;;;;;;;;;;;26.00;88.60;;;;;;5085895;28;19967;-39
2021/03/31 06:16:29;;;;;;;;;;;26.00;88.70;;;;;;5087025;28;19913;-44
2021/03/31 06:18:57;;;;;;;;;;;26.00;88.50;;;;;;5086805;28;20215;-43
2021/03/31 06:21:36;;;;;;;;;;;26.00;88.60;;;;;;5086606;28;20030;-49
2021/03/31 06:24:20;;;;;;;;;;;26.00;88.60;;;;;;5068820;28;20188;-42
2021/03/31 06:27:11;;;;;;;;;;;26.00;88.60;;;;;;5086895;28;19901;-45
2021/03/31 06:30:02;;;;;;;;;;;25.90;88.50;;;;;;5085396;28;19907;-37
2021/03/31 06:32:52;;;;;;;;;;;25.90;88.60;;;;;;5086738;28;20195;-48
2021/03/31 06:35:19;;;;;;;;;;;25.80;88.90;;;;;;5064887;28;20105;-39
2021/03/31 06:37:51;;;;;;;;;;;25.80;89.20;;;;;;5064692;28;19909;-42
2021/03/31 06:40:46;;;;;;;;;;;25.80;89.40;;;;;;5064124;28;20185;-45
2021/03/31 06:43:38;;;;;;;;;;;25.80;89.40;;;;;;5064660;28;19909;-41
2021/03/31 06:46:18;;;;;;;;;;;25.80;89.40;;;;;;5062026;28;19964;-42
2021/03/31 06:48:55;;;;;;;;;;;25.80;89.50;;;;;;5061327;28;19954;-39
2021/03/31 06:51:27;;;;;;;;;;;25.80;89.50;;;;;;5064821;28;19955;-47
2021/03/31 06:53:54;;;;;;;;;;;25.80;89.60;;;;;;5047567;28;19976;-45
2021/03/31 06:56:30;;;;;;;;;;;25.80;89.60;;;;;;5064266;28;19932;-50
2021/03/31 06:59:05;;;;;;;;;;;25.80;89.80;;;;;;5064404;28;19943;-39
2021/03/31 07:01:35;;;;;;;;;;;25.80;89.90;;;;;;5063891;28;19907;-46
2021/03/31 07:04:04;;;;;;;;;;;25.80;89.50;;;;;;5063631;28;19976;-41
2021/03/31 07:06:31;;;;;;;;;;;25.80;89.60;;;;;;5077225;28;19907;-42
2021/03/31 07:08:59;;;;;;;;;;;25.80;89.70;;;;;;5084401;28;19901;-46
2021/03/31 07:11:41;;;;;;;;;;;25.90;89.70;;;;;;5084590;28;19915;-46
2021/03/31 07:14:10;;;;;;;;;;;25.90;89.70;;;;;;5068320;28;19915;-42
2021/03/31 07:16:37;;;;;;;;;;;25.90;89.70;;;;;;5085664;28;20104;-38
2021/03/31 07:19:09;;;;;;;;;;;25.80;89.40;;;;;;5085693;28;19946;-38
2021/03/31 07:21:37;;;;;;;;;;;25.90;89.70;;;;;;5085764;28;19967;-45
2021/03/31 07:24:07;;;;;;;;;;;25.80;89.50;;;;;;5068368;28;19949;-39
2021/03/31 07:26:59;;;;;;;;;;;25.80;89.40;;;;;;5069548;28;19912;-38
2021/03/31 07:29:28;;;;;;;;;;;25.80;89.20;;;;;;5050763;28;20204;-42
2021/03/31 07:31:57;;;;;;;;;;;25.80;89.30;;;;;;5084860;28;19900;-39
2021/03/31 07:34:29;;;;;;;;;;;25.80;89.10;;;;;;5080083;28;19915;-41
2021/03/31 07:37:15;;;;;;;;;;;25.90;89.00;;;;;;5084988;28;19915;-40
2021/03/31 07:39:52;;;;;;;;;;;25.80;89.00;;;;;;5043342;28;19972;-41
2021/03/31 07:42:24;;;;;;;;;;;25.90;88.90;;;;;;5043532;28;20258;-40
2021/03/31 07:45:13;;;;;;;;;;;25.80;88.90;;;;;;5027083;28;20101;-44
2021/03/31 07:47:40;;;;;;;;;;;25.80;88.70;;;;;;5023053;28;19909;-41
2021/03/31 07:50:28;;;;;;;;;;;25.80;88.50;;;;;;5023723;28;19901;-46
2021/03/31 07:52:59;;;;;;;;;;;25.80;88.50;;;;;;4984437;28;19942;-42
2021/03/31 07:55:44;;;;;;;;;;;25.80;88.50;;;;;;4978427;28;19932;-48
2021/03/31 07:58:17;;;;;;;;;;;25.80;88.40;;;;;;4984546;28;19925;-42
2021/03/31 08:01:02;;;;;;;;;;;25.80;88.40;;;;;;4984410;28;20209;-41
2021/03/31 08:03:30;;;;;;;;;;;25.80;88.40;;;;;;4969079;28;20198;-41
2021/03/31 08:06:20;;;;;;;;;;;25.90;88.50;;;;;;4981871;28;20098;-45
2021/03/31 08:08:56;;;;;;;;;;;25.90;88.30;;;;;;4984142;28;20198;-45
2021/03/31 08:11:37;;;;;;;;;;;25.90;88.30;;;;;;5014910;28;19916;-45
2021/03/31 08:14:08;;;;;;;;;;;25.90;87.80;;;;;;5023407;28;19909;-46
2021/03/31 08:16:40;;;;;;;;;;;25.90;87.50;;;;;;5023136;28;19945;-39
2021/03/31 08:19:29;;;;;;;;;;;25.90;87.50;;;;;;5023091;28;20210;-40
2021/03/31 08:21:57;;;;;;;;;;;25.90;87.50;;;;;;5023184;28;19983;-43
2021/03/31 08:24:40;;;;;;;;;;;25.90;87.90;;;;;;5006212;28;19909;-52
2021/03/31 08:27:07;;;;;;;;;;;25.90;87.20;;;;;;5006540;28;20079;-47
2021/03/31 08:29:36;;;;;;;;;;;25.90;87.20;;;;;;5033980;28;20132;-43
2021/03/31 08:32:08;;;;;;;;;;;25.90;87.30;;;;;;5084716;28;19911;-39
2021/03/31 08:34:35;;;;;;;;;;;25.80;87.20;;;;;;5084612;28;19926;-41
2021/03/31 08:37:08;;;;;;;;;;;25.90;87.40;;;;;;5066477;28;19923;-42
2021/03/31 08:39:35;;;;;;;;;;;25.90;87.40;;;;;;5084200;28;19904;-47
2021/03/31 08:42:03;;;;;;;;;;;25.80;87.30;;;;;;5084506;28;19904;-43
2021/03/31 08:44:33;;;;;;;;;;;25.90;87.40;;;;;;5066417;28;20143;-44
2021/03/31 08:47:12;;;;;;;;;;;25.80;87.30;;;;;;5066283;28;19904;-44
2021/03/31 08:49:39;;;;;;;;;;;25.90;87.30;;;;;;5084190;28;19904;-38
2021/03/31 08:52:07;;;;;;;;;;;25.80;87.00;;;;;;5066554;28;19911;-43
2021/03/31 08:54:37;;;;;;;;;;;25.90;87.10;;;;;;5083460;28;20148;-42
2021/03/31 08:57:09;;;;;;;;;;;25.80;86.70;;;;;;5083974;28;19909;-41
2021/03/31 08:59:38;;;;;;;;;;;25.80;86.80;;;;;;5084486;28;19905;-40
2021/03/31 09:02:08;;;;;;;;;;;25.90;86.80;;;;;;5084250;28;19975;-43
2021/03/31 09:04:36;;;;;;;;;;;25.80;86.50;;;;;;5084168;28;20081;-39
2021/03/31 09:07:09;;;;;;;;;;;25.90;86.70;;;;;;5081439;28;19928;-48
2021/03/31 09:09:36;;;;;;;;;;;25.80;86.50;;;;;;5066199;28;19915;-42
2021/03/31 09:12:05;;;;;;;;;;;25.80;86.70;;;;;;5065764;28;19916;-38
2021/03/31 09:14:31;;;;;;;;;;;25.80;86.60;;;;;;5066372;28;19904;-44
2021/03/31 09:17:01;;;;;;;;;;;25.80;86.70;;;;;;5082550;28;19923;-50
2021/03/31 09:19:35;;;;;;;;;;;25.80;86.80;;;;;;5064093;28;19904;-44
2021/03/31 09:22:10;;;;;;;;;;;25.80;86.80;;;;;;5066466;28;19932;-40
2021/03/31 09:24:43;;;;;;;;;;;25.80;87.00;;;;;;5065180;28;19904;-44
2021/03/31 09:27:14;;;;;;;;;;;25.80;87.20;;;;;;5067258;28;19908;-48
2021/03/31 09:29:47;;;;;;;;;;;25.80;87.40;;;;;;5069613;28;19950;-43
2021/03/31 09:35:16;;;;;;;;;;;25.80;87.50;;;;;;5074456;28;19942;-49
2021/03/31 09:37:47;;;;;;;;;;;25.80;87.50;;;;;;5087277;28;19916;-49
2021/03/31 09:40:28;;;;;;;;;;;25.80;87.60;;;;;;5069954;28;20160;-37
2021/03/31 09:42:57;;;;;;;;;;;25.70;87.70;;;;;;5069821;28;19971;-37
2021/03/31 09:45:25;;;;;;;;;;;25.80;87.90;;;;;;5052694;28;19905;-40
2021/03/31 09:47:56;;;;;;;;;;;25.70;87.80;;;;;;5070059;28;20181;-42
2021/03/31 09:50:25;;;;;;;;;;;25.70;87.90;;;;;;5087611;28;19935;-39
2021/03/31 09:52:55;;;;;;;;;;;25.70;88.00;;;;;;5070307;28;20231;-47
2021/03/31 09:55:23;;;;;;;;;;;25.70;88.00;;;;;;5066200;28;19907;-49
2021/03/31 09:58:02;;;;;;;;;;;25.70;87.90;;;;;;5087388;28;19950;-46
2021/03/31 10:00:40;;;;;;;;;;;25.70;87.80;;;;;;5086158;28;19967;-37
2021/03/31 10:03:09;;;;;;;;;;;25.70;87.70;;;;;;5087363;28;20203;-40
2021/03/31 10:05:35;;;;;;;;;;;25.70;87.60;;;;;;5086012;28;19942;-38
2021/03/31 10:08:03;;;;;;;;;;;25.70;87.30;;;;;;5087017;28;19919;-43
2021/03/31 10:10:41;;;;;;;;;;;25.70;87.40;;;;;;5086675;28;19931;-39
2021/03/31 10:13:15;;;;;;;;;;;25.70;87.30;;;;;;5069054;28;20015;-40
2021/03/31 10:16:00;;;;;;;;;;;25.70;87.20;;;;;;5069103;28;19915;-41
2021/03/31 10:18:32;;;;;;;;;;;25.70;87.30;;;;;;5087360;28;20237;-45
2021/03/31 10:21:20;;;;;;;;;;;25.70;87.10;;;;;;5051905;28;20243;-45
2021/03/31 10:23:47;;;;;;;;;;;25.70;87.20;;;;;;5069111;28;19946;-41
2021/03/31 10:26:24;;;;;;;;;;;25.70;87.20;;;;;;5086805;28;19936;-39
2021/03/31 10:28:52;;;;;;;;;;;25.70;86.90;;;;;;5069064;28;19915;-40
2021/03/31 10:31:20;;;;;;;;;;;25.70;87.00;;;;;;5069087;28;19900;-40
2021/03/31 10:33:47;;;;;;;;;;;25.70;87.10;;;;;;5086269;28;19909;-41
2021/03/31 10:36:39;;;;;;;;;;;25.70;87.40;;;;;;5068562;28;19971;-40
2021/03/31 10:49:57;;;;;;;;;;;25.70;87.40;;;;;;5086441;28;19904;-41
2021/03/31 10:52:27;;;;;;;;;;;25.70;87.40;;;;;;5068638;28;19908;-43
2021/03/31 10:54:56;;;;;;;;;;;25.70;88.00;;;;;;5067812;28;19974;-50
2021/03/31 10:57:22;;;;;;;;;;;25.70;88.00;;;;;;5068455;28;19958;-38
2021/03/31 10:59:48;;;;;;;;;;;25.70;88.00;;;;;;5084551;28;19901;-41
2021/03/31 11:02:16;;;;;;;;;;;25.70;88.00;;;;;;5085652;28;19915;-42
2021/03/31 11:05:08;;;;;;;;;;;25.70;88.00;;;;;;5085935;28;19907;-37
2021/03/31 11:07:34;;;;;;;;;;;25.70;88.30;;;;;;5020460;28;20211;-38
2021/03/31 11:10:00;;;;;;;;;;;25.80;88.30;;;;;;5085998;28;20199;-36
2021/03/31 11:12:26;;;;;;;;;;;25.80;88.30;;;;;;5085919;28;20247;-39
2021/03/31 11:14:53;;;;;;;;;;;25.80;88.00;;;;;;5085915;28;20211;-42
2021/03/31 11:17:34;;;;;;;;;;;25.80;87.90;;;;;;5085720;28;20184;-39
2021/03/31 11:25:35;;;;;;;;;;;25.80;87.90;;;;;;5070796;28;20273;-41
2021/03/31 11:25:49;;;;;;;;;;;25.80;88.20;;;;;;5062686;28;19955;-42
2021/03/31 11:28:16;;;;;;;;;;;25.80;88.10;;;;;;5064129;28;20203;-39
2021/03/31 11:31:02;;;;;;;;;;;25.80;88.20;;;;;;5063411;28;19901;-39
2021/03/31 11:33:31;;;;;;;;;;;25.80;88.40;;;;;;5063765;28;19908;-43
2021/03/31 11:35:59;;;;;;;;;;;25.80;89.00;;;;;;5046524;28;19909;-46
2021/03/31 11:38:45;;;;;;;;;;;25.80;89.30;;;;;;5023824;28;19909;-41
2021/03/31 11:41:12;;;;;;;;;;;25.80;88.90;;;;;;5007332;28;19905;-45
2021/03/31 11:43:41;;;;;;;;;;;25.80;88.70;;;;;;5023824;28;20213;-43
2021/03/31 11:46:11;;;;;;;;;;;25.80;88.90;;;;;;5017874;28;19906;-44
2021/03/31 11:48:38;;;;;;;;;;;25.80;88.70;;;;;;5021711;28;19920;-50
2021/03/31 11:51:07;;;;;;;;;;;25.90;88.80;;;;;;5021989;28;20088;-41
2021/03/31 11:53:43;;;;;;;;;;;25.90;88.90;;;;;;5021685;28;19925;-41
2021/03/31 11:56:12;;;;;;;;;;;25.90;88.90;;;;;;5017733;28;19964;-47
2021/03/31 11:58:46;;;;;;;;;;;25.90;89.00;;;;;;5023518;28;20257;-46
2021/03/31 12:01:21;;;;;;;;;;;25.90;89.50;;;;;;5023540;28;20125;-49
2021/03/31 12:03:53;;;;;;;;;;;25.90;89.60;;;;;;5023448;28;19916;-44
2021/03/31 12:06:22;;;;;;;;;;;25.90;90.00;;;;;;5023409;28;20182;-40
2021/03/31 12:08:51;;;;;;;;;;;26.00;89.20;;;;;;5032940;28;19920;-41
2021/03/31 12:11:21;;;;;;;;;;;26.00;89.00;;;;;;5038305;28;19915;-44
2021/03/31 12:13:48;;;;;;;;;;;26.00;88.90;;;;;;5033155;28;19909;-41
2021/03/31 12:16:15;;;;;;;;;;;26.00;89.10;;;;;;5048198;28;19920;-46
2021/03/31 12:18:41;;;;;;;;;;;26.00;89.00;;;;;;5084531;28;19908;-41
2021/03/31 12:21:08;;;;;;;;;;;26.00;89.30;;;;;;5066032;28;19900;-43
2021/03/31 12:23:35;;;;;;;;;;;26.00;89.30;;;;;;5084685;28;19998;-41
2021/03/31 12:26:04;;;;;;;;;;;26.00;89.30;;;;;;5083071;28;19901;-40
2021/03/31 12:28:34;;;;;;;;;;;26.00;89.30;;;;;;5081734;28;19939;-38
2021/03/31 12:31:08;;;;;;;;;;;26.00;89.40;;;;;;5067570;28;19949;-43
2021/03/31 12:33:36;;;;;;;;;;;26.00;89.50;;;;;;5084464;28;19915;-43
2021/03/31 12:36:02;;;;;;;;;;;26.00;89.50;;;;;;5083825;28;19944;-46
2021/03/31 12:38:31;;;;;;;;;;;26.00;89.70;;;;;;5043451;28;19920;-39
2021/03/31 12:40:57;;;;;;;;;;;26.00;89.70;;;;;;5084001;28;19907;-41
2021/03/31 12:43:27;;;;;;;;;;;26.00;89.60;;;;;;5084288;28;20205;-39
2021/03/31 12:45:55;;;;;;;;;;;26.00;89.60;;;;;;5082704;28;19950;-43
2021/03/31 12:48:24;;;;;;;;;;;26.00;89.70;;;;;;5084459;28;19939;-42
2021/03/31 12:50:53;;;;;;;;;;;26.10;90.00;;;;;;5083463;28;19936;-48
2021/03/31 12:53:27;;;;;;;;;;;26.00;89.70;;;;;;5082397;28;19908;-44
2021/03/31 12:55:55;;;;;;;;;;;26.10;89.80;;;;;;5083694;28;19904;-43
2021/03/31 12:58:23;;;;;;;;;;;26.10;89.80;;;;;;5084267;28;19908;-51
2021/03/31 13:01:00;;;;;;;;;;;26.10;90.00;;;;;;5038213;28;19907;-47
2021/03/31 13:03:26;;;;;;;;;;;26.10;89.80;;;;;;5046049;28;19984;-47
2021/03/31 13:05:57;;;;;;;;;;;26.10;89.80;;;;;;5063735;28;19943;-49
2021/03/31 13:08:25;;;;;;;;;;;26.10;89.60;;;;;;5062095;28;19940;-44
2021/03/31 13:11:15;;;;;;;;;;;26.10;89.20;;;;;;5063842;28;19913;-49
2021/03/31 13:22:17;;;;;;;;;;;26.10;89.50;;;;;;5040485;28;19911;-40
2021/03/31 13:24:57;;;;;;;;;;;26.10;89.70;;;;;;5062875;28;19916;-41
2021/03/31 13:30:22;;;;;;;;;;;26.10;89.90;;;;;;5081074;28;20244;-45
2021/03/31 13:33:20;;;;;;;;;;;26.10;90.00;;;;;;5084034;28;19908;-51
2021/03/31 13:38:57;;;;;;;;;;;26.10;90.20;;;;;;5022164;28;19910;-47
2021/03/31 13:41:26;;;;;;;;;;;26.10;90.20;;;;;;5041513;28;19987;-49
2021/03/31 13:43:53;;;;;;;;;;;26.10;90.20;;;;;;5047436;28;19908;-44
2021/03/31 13:46:19;;;;;;;;;;;26.10;90.30;;;;;;5083577;28;19901;-41
2021/03/31 13:49:06;;;;;;;;;;;26.10;90.50;;;;;;5065790;28;19946;-45
2021/03/31 13:51:49;;;;;;;;;;;26.10;90.40;;;;;;5083451;28;19906;-47
2021/03/31 13:54:16;;;;;;;;;;;26.10;90.50;;;;;;5068107;28;19971;-48
2021/03/31 13:56:45;;;;;;;;;;;26.10;90.50;;;;;;5083451;28;19908;-44
2021/03/31 13:59:13;;;;;;;;;;;26.10;90.50;;;;;;5083523;28;19927;-44
2021/03/31 14:01:41;;;;;;;;;;;26.20;90.60;;;;;;5083726;28;19907;-47
2021/03/31 14:04:07;;;;;;;;;;;26.20;90.90;;;;;;5083087;28;20227;-41
2021/03/31 14:06:34;;;;;;;;;;;26.10;90.70;;;;;;5081602;28;20131;-38
2021/03/31 14:09:00;;;;;;;;;;;26.20;90.80;;;;;;5082795;28;20105;-47
2021/03/31 14:11:30;;;;;;;;;;;26.20;90.80;;;;;;5061868;28;20161;-53
2021/03/31 14:14:00;;;;;;;;;;;26.20;90.80;;;;;;5066710;28;19920;-48
2021/03/31 14:16:32;;;;;;;;;;;26.20;90.80;;;;;;5086920;28;19927;-39
2021/03/31 14:18:58;;;;;;;;;;;26.20;90.90;;;;;;5086750;28;20215;-43
2021/03/31 14:21:29;;;;;;;;;;;26.20;91.00;;;;;;5085813;28;19935;-43
2021/03/31 14:24:08;;;;;;;;;;;26.20;90.90;;;;;;5086367;28;19908;-42
2021/03/31 14:27:02;;;;;;;;;;;26.30;91.00;;;;;;5025090;28;19921;-44
2021/03/31 14:29:30;;;;;;;;;;;26.30;90.90;;;;;;5025187;28;19940;-49
2021/03/31 14:32:04;;;;;;;;;;;26.30;90.90;;;;;;5008739;28;19906;-43
2021/03/31 14:34:31;;;;;;;;;;;26.30;90.80;;;;;;5025259;28;19906;-44
2021/03/31 14:37:04;;;;;;;;;;;26.30;90.80;;;;;;5024762;28;19913;-44
2021/03/31 14:39:34;;;;;;;;;;;26.30;90.80;;;;;;5009105;28;19913;-41
2021/03/31 14:42:05;;;;;;;;;;;26.40;90.80;;;;;;5024746;28;19909;-41
2021/03/31 14:44:32;;;;;;;;;;;26.40;90.80;;;;;;5035402;28;19960;-40
2021/03/31 14:46:58;;;;;;;;;;;26.40;91.00;;;;;;5019138;28;20006;-42
2021/03/31 14:49:27;;;;;;;;;;;26.40;90.90;;;;;;5010375;28;19913;-45
2021/03/31 14:59:53;;;;;;;;;;;26.40;90.90;;;;;;5043888;28;19901;-48
2021/03/31 15:02:20;;;;;;;;;;;26.50;91.00;;;;;;5043383;28;19937;-41
2021/03/31 15:04:46;;;;;;;;;;;26.50;91.00;;;;;;5028876;28;19905;-47
2021/03/31 15:07:20;;;;;;;;;;;26.50;90.90;;;;;;5007926;28;20000;-46
2021/03/31 15:09:47;;;;;;;;;;;26.50;91.00;;;;;;5024498;28;19901;-45
2021/03/31 15:12:13;;;;;;;;;;;26.50;91.00;;;;;;5023467;28;19917;-39
2021/03/31 15:14:42;;;;;;;;;;;26.60;91.00;;;;;;5024371;28;19905;-48
2021/03/31 15:17:09;;;;;;;;;;;26.60;91.00;;;;;;5037285;28;19912;-44
2021/03/31 15:19:40;;;;;;;;;;;26.60;91.20;;;;;;5068335;28;19923;-45